32  °F
Temperature
0  °C
Temperature
-1  °C
 Dewpoint
30  °F
  Dewpoint
93  %
 Humidity
  Temperature
21  mph
Wind Speed
18  kts
Wind Speed
34  km/h
Wind Speed
9.4  m/s
Wind Speed
340°
North North
West

Wind Speed
Snow Showers
Pressure 29.69 (inHG) - 1005.42 (mb)
Visibility 1.2 (mi) - 2.0 (km)

Sky Conditions
KPCW
Location Carl R Keller Field 5 mi (8.05 km)
Metar :KPCW 010155Z AUTO 34018G28KT 1 1/4SM -SN BKN003 OVC009 00/M01 A2969 RMK AO2
Mon 30th November 21:55 pm

Nearest Airport
https://www.checkwx.com/weather/KPCW
  Metar Aviation API Data Provided by https://www.checkwx.com/ Original CSS/SVG/PHP scripts by weather34.com © 2015-2020